CFS Alert, Nunavut

Past 24 Hour Conditions

Date / Time
(EDT)
Conditions Temp
(°C)
Humidity
(%)
Dew Point
(°C)
Wind
(km/h)
Pressure
(kPa)
Vis
(km)
Wind Chill
21 October 2014
13:00 Light Snow -24 71 -28 W 15 101.9 8 -34
12:00 Light Snow -24 71 -28 W 18 101.9 11 -35
11:00 Light Snow -24 72 -27 WNW 17 101.9 6 -34
10:00 Light Snow -24 64 -29 W 9 102.0 6 -32
9:00 Light Snow -24 65 -28 W 9 102.0 11 -31
8:00 Light Snow -23 66 -28 WNW 9 102.0 10 -30
7:00 Light Snow -23 66 -28 W 9 102.0 3 -30
6:00 Light Snow -25 62 -30 WNW 8 102.0 0.4 -32
5:00 Light Snow -28   56 -34 W 11 102.0 1 -37
4:00 Light Snow -28   56 -34 WNW 4 102.0 2 -32
3:00 Mainly Clear -28   66 -32 W 9 102.0 11 -36
2:00 Clear -28   55 -34 NW 9 102.0 16 -37
1:00 Clear -28   66 -32 NW 9 101.9 16 -36
00:00 Light Snow -26 69 -30 W 11 101.9 16 -35
20 October 2014
23:00 N/A -26 78 -29 WNW 7 102.0 N/A -33
22:00 N/A -25 79 -28 WNW 9 102.0 N/A -33
21:00 N/A -25 79 -28 WNW 6 102.0 N/A -31
20:00 N/A -25 79 -28 WNW 6 102.0 N/A -31
19:00 N/A -24 80 -26 NNW 7 102.0 N/A -30
18:00 N/A -23 81 -25 NW 4 102.0 N/A -27
17:00 N/A -19   84 -21 NW 4 102.0 N/A -23
16:00 N/A -20 84 -22 calm 102.0 N/A *
15:00 Light Snow -20 77 -23 W 11 101.9 8 -28
14:00 Light Snow -20 76 -24 calm 101.9 11 *
13:00 Light Snow -23 80 -25 calm 101.9 11 *
N/A Not available
↑ Highest temperature
↓ Lowest temperature
* Value not significant.

If you require additional historical weather information, please visit Climate Data Online.

Date modified: